sensor_id;sensor_type;location;lat;lon;timestamp;P1;durP1;ratioP1;P2;durP2;ratioP2
76157;SDS011;64907;51.574;6.502;2023-12-20T00:02:05;36.75;;;17.42;;
76157;SDS011;64907;51.574;6.502;2023-12-20T00:04:38;37.17;;;17.55;;
76157;SDS011;64907;51.574;6.502;2023-12-20T00:07:03;33.53;;;16.52;;
76157;SDS011;64907;51.574;6.502;2023-12-20T00:09:29;36.08;;;16.90;;
76157;SDS011;64907;51.574;6.502;2023-12-20T00:11:57;43.50;;;16.93;;
76157;SDS011;64907;51.574;6.502;2023-12-20T00:14:22;28.27;;;16.10;;
76157;SDS011;64907;51.574;6.502;2023-12-20T00:19:16;30.02;;;15.75;;
76157;SDS011;64907;51.574;6.502;2023-12-20T00:21:42;33.80;;;15.73;;
76157;SDS011;64907;51.574;6.502;2023-12-20T00:24:07;27.92;;;15.48;;
76157;SDS011;64907;51.574;6.502;2023-12-20T00:26:32;30.13;;;15.68;;
76157;SDS011;64907;51.574;6.502;2023-12-20T00:28:57;26.85;;;14.88;;
76157;SDS011;64907;51.574;6.502;2023-12-20T00:31:22;28.53;;;15.00;;
76157;SDS011;64907;51.574;6.502;2023-12-20T00:33:48;26.35;;;14.07;;
76157;SDS011;64907;51.574;6.502;2023-12-20T00:36:13;25.97;;;12.77;;
76157;SDS011;64907;51.574;6.502;2023-12-20T00:38:38;25.23;;;12.43;;
76157;SDS011;64907;51.574;6.502;2023-12-20T00:41:03;25.92;;;11.45;;
76157;SDS011;64907;51.574;6.502;2023-12-20T00:43:28;23.23;;;11.07;;
76157;SDS011;64907;51.574;6.502;2023-12-20T00:45:54;21.70;;;10.55;;
76157;SDS011;64907;51.574;6.502;2023-12-20T00:48:20;21.67;;;10.52;;
76157;SDS011;64907;51.574;6.502;2023-12-20T00:50:45;20.80;;;11.43;;
76157;SDS011;64907;51.574;6.502;2023-12-20T00:53:10;25.27;;;11.80;;
76157;SDS011;64907;51.574;6.502;2023-12-20T00:55:36;21.27;;;10.40;;
76157;SDS011;64907;51.574;6.502;2023-12-20T00:58:02;23.73;;;11.50;;
76157;SDS011;64907;51.574;6.502;2023-12-20T01:00:27;21.40;;;12.32;;
76157;SDS011;64907;51.574;6.502;2023-12-20T01:02:52;23.53;;;11.73;;
76157;SDS011;64907;51.574;6.502;2023-12-20T01:05:18;21.10;;;11.38;;
76157;SDS011;64907;51.574;6.502;2023-12-20T01:07:44;28.88;;;11.55;;
76157;SDS011;64907;51.574;6.502;2023-12-20T01:10:09;20.05;;;11.38;;
76157;SDS011;64907;51.574;6.502;2023-12-20T01:12:35;19.63;;;10.70;;
76157;SDS011;64907;51.574;6.502;2023-12-20T01:15:01;19.13;;;10.40;;
76157;SDS011;64907;51.574;6.502;2023-12-20T01:17:26;21.95;;;10.60;;
76157;SDS011;64907;51.574;6.502;2023-12-20T01:19:51;22.73;;;9.63;;
76157;SDS011;64907;51.574;6.502;2023-12-20T01:22:16;15.45;;;8.73;;
76157;SDS011;64907;51.574;6.502;2023-12-20T01:24:42;23.60;;;9.02;;
76157;SDS011;64907;51.574;6.502;2023-12-20T01:27:09;25.42;;;8.68;;
76157;SDS011;64907;51.574;6.502;2023-12-20T01:29:34;27.30;;;8.85;;
76157;SDS011;64907;51.574;6.502;2023-12-20T01:32:00;22.92;;;8.93;;
76157;SDS011;64907;51.574;6.502;2023-12-20T01:34:25;20.23;;;8.35;;
76157;SDS011;64907;51.574;6.502;2023-12-20T01:36:50;19.13;;;8.73;;
76157;SDS011;64907;51.574;6.502;2023-12-20T01:39:16;27.67;;;8.35;;
76157;SDS011;64907;51.574;6.502;2023-12-20T01:41:41;23.70;;;9.00;;
76157;SDS011;64907;51.574;6.502;2023-12-20T01:44:07;23.98;;;8.70;;
76157;SDS011;64907;51.574;6.502;2023-12-20T01:46:32;17.13;;;9.07;;
76157;SDS011;64907;51.574;6.502;2023-12-20T01:51:26;22.73;;;10.18;;
76157;SDS011;64907;51.574;6.502;2023-12-20T01:53:53;29.75;;;10.90;;
76157;SDS011;64907;51.574;6.502;2023-12-20T01:56:19;21.15;;;11.05;;
76157;SDS011;64907;51.574;6.502;2023-12-20T01:58:46;24.85;;;11.25;;
76157;SDS011;64907;51.574;6.502;2023-12-20T02:01:12;25.52;;;11.57;;
76157;SDS011;64907;51.574;6.502;2023-12-20T02:03:38;34.60;;;12.38;;
76157;SDS011;64907;51.574;6.502;2023-12-20T02:06:04;25.13;;;13.43;;
76157;SDS011;64907;51.574;6.502;2023-12-20T02:08:30;31.85;;;14.48;;
76157;SDS011;64907;51.574;6.502;2023-12-20T02:13:27;32.38;;;14.35;;
76157;SDS011;64907;51.574;6.502;2023-12-20T02:15:53;29.20;;;13.98;;
76157;SDS011;64907;51.574;6.502;2023-12-20T02:18:19;29.35;;;12.80;;
76157;SDS011;64907;51.574;6.502;2023-12-20T02:20:44;26.92;;;13.30;;
76157;SDS011;64907;51.574;6.502;2023-12-20T02:23:09;31.07;;;12.93;;
76157;SDS011;64907;51.574;6.502;2023-12-20T02:25:34;31.55;;;12.50;;
76157;SDS011;64907;51.574;6.502;2023-12-20T02:28:00;35.70;;;12.70;;
76157;SDS011;64907;51.574;6.502;2023-12-20T02:30:25;29.60;;;11.43;;
76157;SDS011;64907;51.574;6.502;2023-12-20T02:32:50;36.90;;;11.43;;
76157;SDS011;64907;51.574;6.502;2023-12-20T02:35:16;31.48;;;12.13;;
76157;SDS011;64907;51.574;6.502;2023-12-20T02:37:41;38.72;;;11.75;;
76157;SDS011;64907;51.574;6.502;2023-12-20T02:40:06;34.23;;;11.47;;
76157;SDS011;64907;51.574;6.502;2023-12-20T02:42:32;24.95;;;10.48;;
76157;SDS011;64907;51.574;6.502;2023-12-20T02:44:57;23.65;;;10.15;;
76157;SDS011;64907;51.574;6.502;2023-12-20T02:47:22;19.45;;;8.27;;
76157;SDS011;64907;51.574;6.502;2023-12-20T02:49:47;23.67;;;8.90;;
76157;SDS011;64907;51.574;6.502;2023-12-20T02:52:12;20.50;;;8.55;;
76157;SDS011;64907;51.574;6.502;2023-12-20T02:54:38;26.93;;;8.30;;
76157;SDS011;64907;51.574;6.502;2023-12-20T02:57:03;30.25;;;8.77;;
76157;SDS011;64907;51.574;6.502;2023-12-20T02:59:28;26.58;;;7.53;;
76157;SDS011;64907;51.574;6.502;2023-12-20T03:01:53;19.65;;;7.35;;
76157;SDS011;64907;51.574;6.502;2023-12-20T03:04:18;21.70;;;7.37;;
76157;SDS011;64907;51.574;6.502;2023-12-20T03:06:44;19.27;;;7.63;;
76157;SDS011;64907;51.574;6.502;2023-12-20T03:09:09;22.23;;;6.67;;
76157;SDS011;64907;51.574;6.502;2023-12-20T03:11:34;21.75;;;6.00;;
76157;SDS011;64907;51.574;6.502;2023-12-20T03:16:29;18.50;;;5.57;;
76157;SDS011;64907;51.574;6.502;2023-12-20T03:18:56;20.08;;;5.75;;
76157;SDS011;64907;51.574;6.502;2023-12-20T03:23:49;23.48;;;5.35;;
76157;SDS011;64907;51.574;6.502;2023-12-20T03:26:15;19.97;;;5.27;;
76157;SDS011;64907;51.574;6.502;2023-12-20T03:28:41;21.77;;;4.85;;
76157;SDS011;64907;51.574;6.502;2023-12-20T03:31:06;21.63;;;5.88;;
76157;SDS011;64907;51.574;6.502;2023-12-20T03:33:31;19.92;;;5.47;;
76157;SDS011;64907;51.574;6.502;2023-12-20T03:35:56;19.30;;;5.63;;
76157;SDS011;64907;51.574;6.502;2023-12-20T03:38:21;24.30;;;6.20;;
76157;SDS011;64907;51.574;6.502;2023-12-20T03:40:48;20.08;;;5.63;;
76157;SDS011;64907;51.574;6.502;2023-12-20T03:43:14;19.77;;;5.85;;
76157;SDS011;64907;51.574;6.502;2023-12-20T03:45:39;34.13;;;6.10;;
76157;SDS011;64907;51.574;6.502;2023-12-20T03:48:06;42.40;;;7.20;;
76157;SDS011;64907;51.574;6.502;2023-12-20T03:50:32;20.45;;;5.80;;
76157;SDS011;64907;51.574;6.502;2023-12-20T03:52:57;26.77;;;6.80;;
76157;SDS011;64907;51.574;6.502;2023-12-20T03:55:22;22.88;;;6.43;;
76157;SDS011;64907;51.574;6.502;2023-12-20T03:57:47;26.95;;;6.03;;
76157;SDS011;64907;51.574;6.502;2023-12-20T04:00:12;28.63;;;6.00;;
76157;SDS011;64907;51.574;6.502;2023-12-20T04:02:38;21.48;;;5.60;;
76157;SDS011;64907;51.574;6.502;2023-12-20T04:05:17;24.42;;;6.28;;
76157;SDS011;64907;51.574;6.502;2023-12-20T04:07:43;23.80;;;5.93;;
76157;SDS011;64907;51.574;6.502;2023-12-20T04:10:08;23.92;;;6.38;;
76157;SDS011;64907;51.574;6.502;2023-12-20T04:12:34;27.35;;;6.45;;
76157;SDS011;64907;51.574;6.502;2023-12-20T04:14:59;24.73;;;5.70;;
76157;SDS011;64907;51.574;6.502;2023-12-20T04:17:24;24.70;;;5.20;;
76157;SDS011;64907;51.574;6.502;2023-12-20T04:19:50;24.90;;;7.13;;
76157;SDS011;64907;51.574;6.502;2023-12-20T04:22:15;22.00;;;7.88;;
76157;SDS011;64907;51.574;6.502;2023-12-20T04:24:40;26.63;;;6.03;;
76157;SDS011;64907;51.574;6.502;2023-12-20T04:27:07;27.38;;;6.30;;
76157;SDS011;64907;51.574;6.502;2023-12-20T04:29:33;21.10;;;6.60;;
76157;SDS011;64907;51.574;6.502;2023-12-20T04:31:58;25.20;;;6.57;;
76157;SDS011;64907;51.574;6.502;2023-12-20T04:34:23;21.02;;;6.30;;
76157;SDS011;64907;51.574;6.502;2023-12-20T04:36:48;29.70;;;6.43;;
76157;SDS011;64907;51.574;6.502;2023-12-20T04:39:13;21.17;;;5.97;;
76157;SDS011;64907;51.574;6.502;2023-12-20T04:41:40;19.88;;;5.68;;
76157;SDS011;64907;51.574;6.502;2023-12-20T04:44:05;24.17;;;6.50;;
76157;SDS011;64907;51.574;6.502;2023-12-20T04:46:31;17.80;;;6.22;;
76157;SDS011;64907;51.574;6.502;2023-12-20T04:48:56;23.00;;;6.23;;
76157;SDS011;64907;51.574;6.502;2023-12-20T04:51:21;22.30;;;6.10;;
76157;SDS011;64907;51.574;6.502;2023-12-20T04:53:46;29.35;;;6.22;;
76157;SDS011;64907;51.574;6.502;2023-12-20T04:56:13;21.73;;;6.80;;
76157;SDS011;64907;51.574;6.502;2023-12-20T04:58:38;33.00;;;6.57;;
76157;SDS011;64907;51.574;6.502;2023-12-20T05:01:03;23.73;;;6.22;;
76157;SDS011;64907;51.574;6.502;2023-12-20T05:03:33;22.50;;;6.47;;
76157;SDS011;64907;51.574;6.502;2023-12-20T05:05:58;24.35;;;7.63;;
76157;SDS011;64907;51.574;6.502;2023-12-20T05:08:32;16.35;;;6.70;;
76157;SDS011;64907;51.574;6.502;2023-12-20T05:10:57;21.20;;;6.43;;
76157;SDS011;64907;51.574;6.502;2023-12-20T05:13:22;24.95;;;6.72;;
76157;SDS011;64907;51.574;6.502;2023-12-20T05:15:47;29.00;;;7.50;;
76157;SDS011;64907;51.574;6.502;2023-12-20T05:18:13;24.70;;;7.55;;
76157;SDS011;64907;51.574;6.502;2023-12-20T05:20:38;28.00;;;8.50;;
76157;SDS011;64907;51.574;6.502;2023-12-20T05:23:03;31.23;;;8.37;;
76157;SDS011;64907;51.574;6.502;2023-12-20T05:25:28;30.40;;;8.80;;
76157;SDS011;64907;51.574;6.502;2023-12-20T05:27:57;20.93;;;7.90;;
76157;SDS011;64907;51.574;6.502;2023-12-20T05:30:22;21.05;;;8.43;;
76157;SDS011;64907;51.574;6.502;2023-12-20T05:32:47;22.80;;;7.78;;
76157;SDS011;64907;51.574;6.502;2023-12-20T05:35:13;24.55;;;9.13;;
76157;SDS011;64907;51.574;6.502;2023-12-20T05:37:38;21.05;;;8.38;;
76157;SDS011;64907;51.574;6.502;2023-12-20T05:40:04;23.27;;;8.02;;
76157;SDS011;64907;51.574;6.502;2023-12-20T05:42:30;29.05;;;8.50;;
76157;SDS011;64907;51.574;6.502;2023-12-20T05:44:55;32.00;;;8.40;;
76157;SDS011;64907;51.574;6.502;2023-12-20T05:47:20;26.77;;;7.22;;
76157;SDS011;64907;51.574;6.502;2023-12-20T05:49:45;17.87;;;7.10;;
76157;SDS011;64907;51.574;6.502;2023-12-20T05:52:10;21.60;;;8.43;;
76157;SDS011;64907;51.574;6.502;2023-12-20T05:54:35;50.58;;;10.10;;
76157;SDS011;64907;51.574;6.502;2023-12-20T05:57:01;23.13;;;8.25;;
76157;SDS011;64907;51.574;6.502;2023-12-20T05:59:26;20.70;;;8.15;;
76157;SDS011;64907;51.574;6.502;2023-12-20T06:01:51;26.75;;;8.77;;
76157;SDS011;64907;51.574;6.502;2023-12-20T06:04:17;27.67;;;9.30;;
76157;SDS011;64907;51.574;6.502;2023-12-20T06:06:43;21.27;;;7.78;;
76157;SDS011;64907;51.574;6.502;2023-12-20T06:09:08;26.42;;;8.18;;
76157;SDS011;64907;51.574;6.502;2023-12-20T06:11:40;30.55;;;7.50;;
76157;SDS011;64907;51.574;6.502;2023-12-20T06:14:05;27.70;;;7.70;;
76157;SDS011;64907;51.574;6.502;2023-12-20T06:16:31;31.08;;;7.80;;
76157;SDS011;64907;51.574;6.502;2023-12-20T06:18:56;30.83;;;8.05;;
76157;SDS011;64907;51.574;6.502;2023-12-20T06:21:21;25.50;;;7.70;;
76157;SDS011;64907;51.574;6.502;2023-12-20T06:23:47;25.33;;;7.60;;
76157;SDS011;64907;51.574;6.502;2023-12-20T06:26:12;23.45;;;7.68;;
76157;SDS011;64907;51.574;6.502;2023-12-20T06:28:38;22.93;;;6.97;;
76157;SDS011;64907;51.574;6.502;2023-12-20T06:31:03;24.30;;;7.68;;
76157;SDS011;64907;51.574;6.502;2023-12-20T06:33:28;26.25;;;7.55;;
76157;SDS011;64907;51.574;6.502;2023-12-20T06:35:59;23.75;;;6.63;;
76157;SDS011;64907;51.574;6.502;2023-12-20T06:38:24;19.50;;;6.70;;
76157;SDS011;64907;51.574;6.502;2023-12-20T06:40:55;23.15;;;6.90;;
76157;SDS011;64907;51.574;6.502;2023-12-20T06:43:22;16.88;;;7.03;;
76157;SDS011;64907;51.574;6.502;2023-12-20T06:50:53;27.15;;;7.13;;
76157;SDS011;64907;51.574;6.502;2023-12-20T06:53:18;19.42;;;6.90;;
76157;SDS011;64907;51.574;6.502;2023-12-20T06:55:43;14.35;;;6.15;;
76157;SDS011;64907;51.574;6.502;2023-12-20T06:58:08;21.00;;;6.15;;
76157;SDS011;64907;51.574;6.502;2023-12-20T07:00:34;24.03;;;6.33;;
76157;SDS011;64907;51.574;6.502;2023-12-20T07:02:59;21.50;;;7.03;;
76157;SDS011;64907;51.574;6.502;2023-12-20T07:05:24;27.47;;;7.17;;
76157;SDS011;64907;51.574;6.502;2023-12-20T07:07:50;32.65;;;7.47;;
76157;SDS011;64907;51.574;6.502;2023-12-20T07:10:15;19.40;;;6.67;;
76157;SDS011;64907;51.574;6.502;2023-12-20T07:12:40;23.48;;;6.25;;
76157;SDS011;64907;51.574;6.502;2023-12-20T07:15:05;16.70;;;5.25;;
76157;SDS011;64907;51.574;6.502;2023-12-20T07:17:32;17.88;;;7.03;;
76157;SDS011;64907;51.574;6.502;2023-12-20T07:19:58;23.63;;;6.53;;
76157;SDS011;64907;51.574;6.502;2023-12-20T07:22:23;29.88;;;6.93;;
76157;SDS011;64907;51.574;6.502;2023-12-20T07:24:48;23.75;;;6.22;;
76157;SDS011;64907;51.574;6.502;2023-12-20T07:27:14;25.52;;;6.60;;
76157;SDS011;64907;51.574;6.502;2023-12-20T07:29:40;20.50;;;5.75;;
76157;SDS011;64907;51.574;6.502;2023-12-20T07:32:05;21.30;;;6.50;;
76157;SDS011;64907;51.574;6.502;2023-12-20T07:34:30;23.95;;;6.55;;
76157;SDS011;64907;51.574;6.502;2023-12-20T07:36:55;19.83;;;6.38;;
76157;SDS011;64907;51.574;6.502;2023-12-20T07:39:20;30.33;;;6.57;;
76157;SDS011;64907;51.574;6.502;2023-12-20T07:41:46;23.75;;;6.30;;
76157;SDS011;64907;51.574;6.502;2023-12-20T07:44:11;23.02;;;6.45;;
76157;SDS011;64907;51.574;6.502;2023-12-20T07:46:36;24.67;;;5.72;;
76157;SDS011;64907;51.574;6.502;2023-12-20T07:49:01;24.70;;;6.27;;
76157;SDS011;64907;51.574;6.502;2023-12-20T07:51:26;20.25;;;6.13;;
76157;SDS011;64907;51.574;6.502;2023-12-20T07:54:04;17.02;;;5.15;;
76157;SDS011;64907;51.574;6.502;2023-12-20T07:56:30;19.15;;;5.68;;
76157;SDS011;64907;51.574;6.502;2023-12-20T08:01:24;18.40;;;5.03;;
76157;SDS011;64907;51.574;6.502;2023-12-20T08:03:50;22.65;;;5.43;;
76157;SDS011;64907;51.574;6.502;2023-12-20T08:08:46;31.08;;;6.35;;
76157;SDS011;64907;51.574;6.502;2023-12-20T08:11:11;22.63;;;6.72;;
76157;SDS011;64907;51.574;6.502;2023-12-20T08:13:36;18.53;;;6.43;;
76157;SDS011;64907;51.574;6.502;2023-12-20T08:16:02;17.83;;;5.22;;
76157;SDS011;64907;51.574;6.502;2023-12-20T08:18:28;21.80;;;6.28;;
76157;SDS011;64907;51.574;6.502;2023-12-20T08:20:53;17.50;;;5.70;;
76157;SDS011;64907;51.574;6.502;2023-12-20T08:23:18;18.33;;;5.63;;
76157;SDS011;64907;51.574;6.502;2023-12-20T08:25:45;24.17;;;6.10;;
76157;SDS011;64907;51.574;6.502;2023-12-20T08:28:11;13.45;;;4.68;;
76157;SDS011;64907;51.574;6.502;2023-12-20T08:30:36;26.27;;;6.82;;
76157;SDS011;64907;51.574;6.502;2023-12-20T08:33:01;20.83;;;5.70;;
76157;SDS011;64907;51.574;6.502;2023-12-20T08:35:27;21.92;;;5.43;;
76157;SDS011;64907;51.574;6.502;2023-12-20T08:37:53;19.25;;;4.90;;
76157;SDS011;64907;51.574;6.502;2023-12-20T08:40:19;19.30;;;4.93;;
76157;SDS011;64907;51.574;6.502;2023-12-20T08:42:45;14.88;;;4.57;;
76157;SDS011;64907;51.574;6.502;2023-12-20T08:45:19;19.70;;;5.33;;
76157;SDS011;64907;51.574;6.502;2023-12-20T08:47:45;20.55;;;4.53;;
76157;SDS011;64907;51.574;6.502;2023-12-20T08:50:10;17.70;;;4.63;;
76157;SDS011;64907;51.574;6.502;2023-12-20T08:52:36;16.00;;;4.22;;
76157;SDS011;64907;51.574;6.502;2023-12-20T08:55:01;19.38;;;5.20;;
76157;SDS011;64907;51.574;6.502;2023-12-20T08:57:28;15.93;;;4.67;;
76157;SDS011;64907;51.574;6.502;2023-12-20T08:59:54;26.70;;;4.72;;
76157;SDS011;64907;51.574;6.502;2023-12-20T09:02:19;19.57;;;5.37;;
76157;SDS011;64907;51.574;6.502;2023-12-20T09:04:44;29.20;;;5.20;;
76157;SDS011;64907;51.574;6.502;2023-12-20T09:07:22;23.85;;;4.72;;
76157;SDS011;64907;51.574;6.502;2023-12-20T09:09:48;22.90;;;6.25;;
76157;SDS011;64907;51.574;6.502;2023-12-20T09:12:13;13.47;;;4.80;;
76157;SDS011;64907;51.574;6.502;2023-12-20T09:14:38;18.27;;;5.03;;
76157;SDS011;64907;51.574;6.502;2023-12-20T09:17:03;20.10;;;4.90;;
76157;SDS011;64907;51.574;6.502;2023-12-20T09:19:28;21.17;;;5.63;;
76157;SDS011;64907;51.574;6.502;2023-12-20T09:21:54;18.02;;;5.32;;
76157;SDS011;64907;51.574;6.502;2023-12-20T09:24:20;19.42;;;6.00;;
76157;SDS011;64907;51.574;6.502;2023-12-20T09:26:45;16.03;;;4.50;;
76157;SDS011;64907;51.574;6.502;2023-12-20T09:31:47;21.98;;;5.30;;
76157;SDS011;64907;51.574;6.502;2023-12-20T09:34:19;15.18;;;5.00;;
76157;SDS011;64907;51.574;6.502;2023-12-20T09:36:44;18.58;;;5.45;;
76157;SDS011;64907;51.574;6.502;2023-12-20T09:41:44;19.15;;;5.40;;
76157;SDS011;64907;51.574;6.502;2023-12-20T09:44:15;22.05;;;5.50;;
76157;SDS011;64907;51.574;6.502;2023-12-20T09:46:42;17.92;;;4.57;;
76157;SDS011;64907;51.574;6.502;2023-12-20T09:49:08;20.88;;;4.65;;
76157;SDS011;64907;51.574;6.502;2023-12-20T09:51:33;19.67;;;5.27;;
76157;SDS011;64907;51.574;6.502;2023-12-20T09:53:59;15.30;;;5.43;;
76157;SDS011;64907;51.574;6.502;2023-12-20T09:56:26;20.13;;;5.18;;
76157;SDS011;64907;51.574;6.502;2023-12-20T09:58:51;14.38;;;5.13;;
76157;SDS011;64907;51.574;6.502;2023-12-20T10:01:16;19.90;;;4.85;;
76157;SDS011;64907;51.574;6.502;2023-12-20T10:03:42;23.33;;;6.03;;
76157;SDS011;64907;51.574;6.502;2023-12-20T10:06:07;19.00;;;5.25;;
76157;SDS011;64907;51.574;6.502;2023-12-20T10:08:32;19.40;;;5.13;;
76157;SDS011;64907;51.574;6.502;2023-12-20T10:10:57;19.70;;;5.38;;
76157;SDS011;64907;51.574;6.502;2023-12-20T10:13:27;17.38;;;5.32;;
76157;SDS011;64907;51.574;6.502;2023-12-20T10:15:52;19.23;;;5.18;;
76157;SDS011;64907;51.574;6.502;2023-12-20T10:18:23;15.00;;;4.78;;
76157;SDS011;64907;51.574;6.502;2023-12-20T10:20:48;20.65;;;5.28;;
76157;SDS011;64907;51.574;6.502;2023-12-20T10:23:29;17.13;;;4.50;;
76157;SDS011;64907;51.574;6.502;2023-12-20T10:25:56;16.13;;;4.80;;
76157;SDS011;64907;51.574;6.502;2023-12-20T10:28:22;22.60;;;5.68;;
76157;SDS011;64907;51.574;6.502;2023-12-20T10:30:48;21.05;;;4.90;;
76157;SDS011;64907;51.574;6.502;2023-12-20T10:33:13;14.55;;;4.60;;
76157;SDS011;64907;51.574;6.502;2023-12-20T10:35:39;22.40;;;5.20;;
76157;SDS011;64907;51.574;6.502;2023-12-20T10:38:05;18.80;;;5.35;;
76157;SDS011;64907;51.574;6.502;2023-12-20T10:40:30;12.32;;;4.05;;
76157;SDS011;64907;51.574;6.502;2023-12-20T10:42:56;19.48;;;5.50;;
76157;SDS011;64907;51.574;6.502;2023-12-20T10:45:26;17.10;;;5.32;;
76157;SDS011;64907;51.574;6.502;2023-12-20T10:47:51;14.30;;;4.95;;
76157;SDS011;64907;51.574;6.502;2023-12-20T10:50:18;16.20;;;5.60;;
76157;SDS011;64907;51.574;6.502;2023-12-20T10:52:44;14.57;;;4.55;;
76157;SDS011;64907;51.574;6.502;2023-12-20T10:55:09;25.05;;;6.18;;
76157;SDS011;64907;51.574;6.502;2023-12-20T10:57:35;16.20;;;4.70;;
76157;SDS011;64907;51.574;6.502;2023-12-20T11:00:01;12.45;;;3.85;;
76157;SDS011;64907;51.574;6.502;2023-12-20T11:02:30;22.67;;;5.85;;
76157;SDS011;64907;51.574;6.502;2023-12-20T11:04:59;16.10;;;5.07;;
76157;SDS011;64907;51.574;6.502;2023-12-20T11:10:20;18.83;;;5.57;;
76157;SDS011;64907;51.574;6.502;2023-12-20T11:15:11;21.58;;;7.30;;
76157;SDS011;64907;51.574;6.502;2023-12-20T11:20:14;19.30;;;5.65;;
76157;SDS011;64907;51.574;6.502;2023-12-20T11:22:39;14.77;;;5.53;;
76157;SDS011;64907;51.574;6.502;2023-12-20T11:25:16;14.93;;;5.45;;
76157;SDS011;64907;51.574;6.502;2023-12-20T11:27:42;14.73;;;4.75;;
76157;SDS011;64907;51.574;6.502;2023-12-20T11:30:08;23.65;;;7.43;;
76157;SDS011;64907;51.574;6.502;2023-12-20T11:32:34;29.55;;;5.45;;
76157;SDS011;64907;51.574;6.502;2023-12-20T11:37:38;14.35;;;5.70;;
76157;SDS011;64907;51.574;6.502;2023-12-20T11:40:08;16.40;;;5.30;;
76157;SDS011;64907;51.574;6.502;2023-12-20T11:42:43;22.13;;;5.43;;
76157;SDS011;64907;51.574;6.502;2023-12-20T11:45:09;27.40;;;5.68;;
76157;SDS011;64907;51.574;6.502;2023-12-20T11:47:34;14.23;;;5.30;;
76157;SDS011;64907;51.574;6.502;2023-12-20T11:50:00;28.00;;;5.97;;
76157;SDS011;64907;51.574;6.502;2023-12-20T11:52:28;21.25;;;6.07;;
76157;SDS011;64907;51.574;6.502;2023-12-20T11:54:53;14.10;;;5.07;;
76157;SDS011;64907;51.574;6.502;2023-12-20T11:57:20;18.97;;;5.07;;
76157;SDS011;64907;51.574;6.502;2023-12-20T11:59:46;13.65;;;5.50;;
76157;SDS011;64907;51.574;6.502;2023-12-20T12:02:11;18.55;;;6.07;;
76157;SDS011;64907;51.574;6.502;2023-12-20T12:04:36;11.45;;;4.28;;
76157;SDS011;64907;51.574;6.502;2023-12-20T12:07:03;21.48;;;5.45;;
76157;SDS011;64907;51.574;6.502;2023-12-20T12:09:28;15.85;;;4.47;;
76157;SDS011;64907;51.574;6.502;2023-12-20T12:11:53;14.00;;;4.57;;
76157;SDS011;64907;51.574;6.502;2023-12-20T12:14:18;17.15;;;4.80;;
76157;SDS011;64907;51.574;6.502;2023-12-20T12:16:45;15.13;;;6.15;;
76157;SDS011;64907;51.574;6.502;2023-12-20T12:19:20;15.38;;;5.22;;
76157;SDS011;64907;51.574;6.502;2023-12-20T12:21:46;17.88;;;5.57;;
76157;SDS011;64907;51.574;6.502;2023-12-20T12:24:11;19.00;;;5.25;;
76157;SDS011;64907;51.574;6.502;2023-12-20T12:29:07;12.40;;;5.22;;
76157;SDS011;64907;51.574;6.502;2023-12-20T12:31:32;17.95;;;5.80;;
76157;SDS011;64907;51.574;6.502;2023-12-20T12:36:27;23.70;;;5.13;;
76157;SDS011;64907;51.574;6.502;2023-12-20T12:38:53;16.80;;;4.78;;
76157;SDS011;64907;51.574;6.502;2023-12-20T12:43:48;12.25;;;5.10;;
76157;SDS011;64907;51.574;6.502;2023-12-20T12:46:13;12.73;;;5.30;;
76157;SDS011;64907;51.574;6.502;2023-12-20T12:48:38;20.15;;;5.13;;
76157;SDS011;64907;51.574;6.502;2023-12-20T12:51:04;17.70;;;5.47;;
76157;SDS011;64907;51.574;6.502;2023-12-20T12:53:29;10.52;;;5.70;;
76157;SDS011;64907;51.574;6.502;2023-12-20T12:55:54;18.20;;;5.20;;
76157;SDS011;64907;51.574;6.502;2023-12-20T12:58:19;11.77;;;5.47;;
76157;SDS011;64907;51.574;6.502;2023-12-20T13:00:46;19.67;;;5.53;;
76157;SDS011;64907;51.574;6.502;2023-12-20T13:03:11;19.67;;;6.00;;
76157;SDS011;64907;51.574;6.502;2023-12-20T13:05:36;19.83;;;5.90;;
76157;SDS011;64907;51.574;6.502;2023-12-20T13:08:02;16.23;;;5.97;;
76157;SDS011;64907;51.574;6.502;2023-12-20T13:10:27;17.30;;;6.40;;
76157;SDS011;64907;51.574;6.502;2023-12-20T13:12:53;15.55;;;6.32;;
76157;SDS011;64907;51.574;6.502;2023-12-20T13:15:18;16.10;;;6.47;;
76157;SDS011;64907;51.574;6.502;2023-12-20T13:17:43;21.08;;;7.68;;
76157;SDS011;64907;51.574;6.502;2023-12-20T13:20:11;20.13;;;7.30;;
76157;SDS011;64907;51.574;6.502;2023-12-20T13:22:36;18.05;;;7.32;;
76157;SDS011;64907;51.574;6.502;2023-12-20T13:25:01;29.30;;;7.20;;
76157;SDS011;64907;51.574;6.502;2023-12-20T13:27:28;20.23;;;7.50;;
76157;SDS011;64907;51.574;6.502;2023-12-20T13:29:53;17.08;;;6.63;;
76157;SDS011;64907;51.574;6.502;2023-12-20T13:32:18;22.57;;;7.67;;
76157;SDS011;64907;51.574;6.502;2023-12-20T13:34:44;19.23;;;8.57;;
76157;SDS011;64907;51.574;6.502;2023-12-20T13:37:10;21.10;;;7.77;;
76157;SDS011;64907;51.574;6.502;2023-12-20T13:39:35;15.18;;;7.28;;
76157;SDS011;64907;51.574;6.502;2023-12-20T13:42:00;17.00;;;7.18;;
76157;SDS011;64907;51.574;6.502;2023-12-20T13:44:25;19.13;;;7.82;;
76157;SDS011;64907;51.574;6.502;2023-12-20T13:46:58;24.55;;;8.68;;
76157;SDS011;64907;51.574;6.502;2023-12-20T13:49:23;21.80;;;9.68;;
76157;SDS011;64907;51.574;6.502;2023-12-20T13:51:54;22.75;;;10.82;;
76157;SDS011;64907;51.574;6.502;2023-12-20T13:54:19;22.45;;;10.50;;
76157;SDS011;64907;51.574;6.502;2023-12-20T13:56:47;18.80;;;10.27;;
76157;SDS011;64907;51.574;6.502;2023-12-20T13:59:12;22.43;;;10.17;;
76157;SDS011;64907;51.574;6.502;2023-12-20T14:01:38;21.88;;;10.52;;
76157;SDS011;64907;51.574;6.502;2023-12-20T14:04:04;22.25;;;9.98;;
76157;SDS011;64907;51.574;6.502;2023-12-20T14:06:29;21.40;;;10.40;;
76157;SDS011;64907;51.574;6.502;2023-12-20T14:08:54;22.73;;;9.77;;
76157;SDS011;64907;51.574;6.502;2023-12-20T14:14:07;23.60;;;10.15;;
76157;SDS011;64907;51.574;6.502;2023-12-20T14:16:32;21.05;;;9.48;;
76157;SDS011;64907;51.574;6.502;2023-12-20T14:18:58;24.52;;;9.35;;
76157;SDS011;64907;51.574;6.502;2023-12-20T14:21:23;19.98;;;10.07;;
76157;SDS011;64907;51.574;6.502;2023-12-20T14:23:49;22.90;;;10.10;;
76157;SDS011;64907;51.574;6.502;2023-12-20T14:26:14;21.73;;;10.73;;
76157;SDS011;64907;51.574;6.502;2023-12-20T14:28:42;23.55;;;8.95;;
76157;SDS011;64907;51.574;6.502;2023-12-20T14:31:08;19.25;;;10.70;;
76157;SDS011;64907;51.574;6.502;2023-12-20T14:33:35;21.15;;;9.57;;
76157;SDS011;64907;51.574;6.502;2023-12-20T14:36:01;19.58;;;9.60;;
76157;SDS011;64907;51.574;6.502;2023-12-20T14:38:30;25.77;;;10.32;;
76157;SDS011;64907;51.574;6.502;2023-12-20T14:40:55;27.90;;;11.00;;
76157;SDS011;64907;51.574;6.502;2023-12-20T14:43:24;31.70;;;10.40;;
76157;SDS011;64907;51.574;6.502;2023-12-20T14:45:51;26.48;;;9.60;;
76157;SDS011;64907;51.574;6.502;2023-12-20T14:48:16;22.85;;;9.43;;
76157;SDS011;64907;51.574;6.502;2023-12-20T14:50:43;18.65;;;9.25;;
76157;SDS011;64907;51.574;6.502;2023-12-20T14:53:08;30.73;;;9.43;;
76157;SDS011;64907;51.574;6.502;2023-12-20T14:55:33;24.73;;;7.80;;
76157;SDS011;64907;51.574;6.502;2023-12-20T14:57:59;19.00;;;8.15;;
76157;SDS011;64907;51.574;6.502;2023-12-20T15:00:24;20.45;;;8.18;;
76157;SDS011;64907;51.574;6.502;2023-12-20T15:02:50;20.90;;;8.13;;
76157;SDS011;64907;51.574;6.502;2023-12-20T15:05:15;26.35;;;8.13;;
76157;SDS011;64907;51.574;6.502;2023-12-20T15:07:42;18.85;;;7.95;;
76157;SDS011;64907;51.574;6.502;2023-12-20T15:10:07;22.67;;;7.63;;
76157;SDS011;64907;51.574;6.502;2023-12-20T15:12:32;22.30;;;8.88;;